WEATHER DATA

YESTERDAY
Time Temp. Dewp. Hum. Wind dir Wind speed Wind gust Bar. 1h Prec. 24h Prec.
00:10 17.5 10.6 64 191 0.3 0.6 1005.3 0.0000 0.0000
00:20 17.4 10.8 65 188 0.3 0.6 1005.2 0.0000 0.0000
00:30 17.3 10.7 65 180 0.3 0.6 1005 0.0000 0.0000
00:40 17.3 10.7 65 180 0.3 0.6 1005.2 0.0000 0.0000
00:50 17.1 10.7 66 180 0.3 0.6 1005 0.0000 0.0000
01:00 17.1 10.7 66 201 0.3 0.6 1005 0.0000 0.0000
01:10 17.1 10.7 66 180 0.3 0.6 1005 0.0000 0.0000
01:21 17.1 10.7 66 0 0.3 1004.6 0.0000 0.0000
01:30 17 10.6 66 171 0.3 0.6 1004.9 0.0000 0.0000
01:40 17 10.6 66 198 0.3 0.6 1004.4 0.0000 0.0000
01:50 16.9 10.7 67 198 0.3 0.6 1004.2 0.0000 0.0000
02:01 16.9 10.7 67 180 0.3 0.6 1004.3 0.0000 0.0000
02:11 16.9 10.7 67 0 0.3 1004 0.0000 0.0000
02:20 16.8 10.6 67 180 0.3 0.6 1004 0.0000 0.0000
02:31 16.8 10.6 67 191 0.3 0.6 1003.9 0.0000 0.0000
02:41 16.7 10.5 67 0 0.6 1004 0.0000 0.0000
02:51 16.7 10.5 67 161 0.3 0.6 1003.8 0.0000 0.0000
03:01 16.5 10.6 68 171 0.3 0.6 1004 0.0000 0.0000
03:11 16.6 10.7 68 0 0.3 1003.4 0.0000 0.0000
03:21 16.5 10.6 68 198 0.3 0.6 1003.4 0.0000 0.0000
03:31 16.5 10.6 68 156 0.3 0.6 1003.1 0.0000 0.0000
03:42 16.5 10.6 68 165 0.3 0.6 1003.5 0.0000 0.0000
03:51 16.5 10.6 68 186 0.3 0.6 1003.1 0.0000 0.0000
04:01 16.5 10.6 68 180 0.3 0.6 1003.3 0.0000 0.0000
04:11 16.4 10.5 68 188 0.3 0.6 1003.4 0.0000 0.0000
04:22 16 10.3 69 209 0.3 0.6 1003.4 0.0000 0.0000
04:32 15.6 10.2 70 216 0.3 0.8 1003.3 0.0000 0.0000
04:41 15.5 10.3 71 210 0.3 0.6 1003.3 0.0000 0.0000
04:52 15.5 10.1 70 180 0.3 0.6 1003.4 0.0000 0.0000
05:02 15.4 10.2 71 232 0.3 0.6 1003.4 0.0000 0.0000
05:12 15.3 10.1 71 173 0.3 0.6 1003.3 0.0000 0.0000
05:22 15.5 10.3 71 201 0.3 0.6 1003.1 0.0000 0.0000
05:32 15.6 10.2 70 186 0.3 0.6 1002.9 0.0000 0.0000
05:42 15.6 10.2 70 180 0.3 0.6 1003 0.0000 0.0000
05:52 15.6 10.2 70 168 0.3 0.6 1002.8 0.0000 0.0000
06:03 15.6 10.2 70 161 0.3 0.6 1002.8 0.0000 0.0000
06:13 15.7 10.3 70 173 0.3 0.6 1002.7 0.0000 0.0000
06:22 15.7 10.3 70 0 0.6 1002.7 0.0000 0.0000
06:32 15.7 10.5 71 161 0.3 0.6 1002.7 0.0000 0.0000
06:43 15.8 10.3 70 186 0.3 0.6 1002.5 0.0000 0.0000
06:53 15.7 10.5 71 173 0.3 0.6 1002.6 0.0000 0.0000
07:03 15.8 10.6 71 198 0.3 0.3 1003 0.0000 0.0000
07:14 15.9 10.4 70 201 0.3 0.6 1002.7 0.0000 0.0000
07:23 15.9 10.4 70 180 0.3 0.6 1002.5 0.0000 0.0000
07:33 15.9 10.4 70 0 0.6 1003 0.0000 0.0000
07:43 16 10.5 70 0 0.3 1002.8 0.0000 0.0000
07:54 16 10.5 70 161 0.3 0.6 1003 0.0000 0.0000
08:04 16.7 11.2 70 135 0.3 0.6 1002.9 0.0000 0.0000
08:13 16.8 10.9 68 90 0.3 0.6 1002.8 0.0000 0.0000
08:24 16.8 10.9 68 90 0.3 0.3 1002.6 0.0000 0.0000
08:34 16.9 11 68 123 0.3 0.3 1002.4 0.0000 0.0000
08:44 16.8 10.9 68 0 0.3 1002.6 0.0000 0.0000
08:54 16.9 11 68 0 0.6 1002.7 0.0000 0.0000
09:05 17.2 11.2 68 90 0.3 0.6 1002.5 0.0000 0.0000
09:15 17.2 11 67 0 0.6 1002.4 0.0000 0.0000
09:25 17.1 11.2 68 188 0.3 0.6 1002.4 0.0000 0.0000
09:34 16.9 11 68 0 0.3 1002 0.0000 0.0000
09:45 17.2 11.2 68 135 0.3 0.6 1001.9 0.0000 0.0000
09:55 17.4 11.2 67 0 0.3 1002.1 0.0000 0.0000
10:05 17.1 10.9 67 123 0.3 0.6 1002.3 0.0000 0.0000
10:16 17 11.1 68 161 0.3 0.6 1002.2 0.0000 0.0000
10:25 16.9 11 68 153 0.3 0.6 1002.1 0.0000 0.0000
10:35 17 11.1 68 0 0.3 1001.7 0.0000 0.0000
10:45 17 11.1 68 0 0.3 1001.7 0.0000 0.0000
10:56 17.1 11.2 68 90 0.3 0.6 1002 0.0000 0.0000
11:06 17.1 11.2 68 0 0.6 1002.3 0.0000 0.0000
11:15 17.1 11.2 68 0 0.3 1002.1 0.0000 0.0000
11:26 17.3 11.1 67 135 0.3 0.3 1002.1 0.0000 0.0000
11:36 17.4 11.2 67 0 0.3 1002.3 0.0000 0.0000
11:46 17.3 11.1 67 0 0.3 1002.4 0.0000 0.0000
11:56 17.2 11 67 0 0.6 1002.2 0.0000 0.0000
12:06 17.4 11.4 68 0 0.3 1002.1 0.0000 0.0000
12:16 17.4 11.2 67 0 0.3 1002.1 0.0000 0.0000
12:27 17.6 11.4 67 0 0.6 1002.1 0.0000 0.0000
12:36 17.7 11.5 67 0 0.3 1002 0.0000 0.0000
12:47 18 11.6 66 0 0.6 1002.2 0.0000 0.0000
12:57 18.7 12 65 0 0.3 1002.2 0.0000 0.0000
13:07 19.2 12 63 0 0.3 1002.2 0.0000 0.0000
13:18 19.4 11.9 62 0 0.3 1002.2 0.0000 0.0000
13:28 19.5 12.3 63 135 0.3 0.6 1002.1 0.0000 0.0000
13:37 19.7 12.2 62 135 0.3 0.8 1002.3 0.0000 0.0000
13:47 20.1 12.4 61 149 0.3 0.6 1002.6 0.0000 0.0000
13:58 20.3 12.5 61 165 0.3 0.3 1002.5 0.0000 0.0000
14:08 20.4 12.6 61 135 0.3 0.6 1002.3 0.0000 0.0000
14:18 20.4 12.4 60 161 0.3 0.6 1002.2 0.0000 0.0000
14:28 20.3 12.5 61 180 0.3 0.6 1002.5 0.0000 0.0000
14:39 20.2 12.4 61 161 0.3 0.6 1002.6 0.0000 0.0000
14:48 20.5 12.7 61 156 0.3 0.6 1002.6 0.0000 0.0000
14:58 20.4 12.6 61 0 0.6 1002.4 0.0000 0.0000
15:09 20.4 12.6 61 0 0.6 1002.5 0.0000 0.0000
15:19 20.3 12.5 61 135 0.3 0.6 1002.6 0.0000 0.0000
15:29 20.4 12.6 61 149 0.3 0.6 1002.8 0.0000 0.0000
15:38 20.3 12.5 61 208 0.3 0.8 1003 0.0000 0.0000
15:49 20.2 12.4 61 195 0.3 0.6 1002.9 0.0000 0.0000
16:00 20.3 12.5 61 204 0.3 0.8 1002.9 0.0000 0.0000
16:10 20.1 12.4 61 218 0.3 0.6 1003 0.0000 0.0000
16:20 20 12.3 61 210 0.3 0.6 1002.9 0.0000 0.0000
16:31 19.9 12.4 62 218 0.3 0.8 1003 0.0000 0.0000
16:40 19.9 12.4 62 201 0.3 0.6 1002.9 0.0000 0.0000
16:50 19.8 12.3 62 203 0.3 0.6 1002.8 0.0000 0.0000
17:01 19.7 12.2 62 206 0.3 0.6 1003.1 0.0000 0.0000
17:11 19.8 12.3 62 180 0.3 0.6 1003.3 0.0000 0.0000
17:21 19.7 12.5 63 203 0.3 0.6 1003.3 0.0000 0.0000
17:30 19.9 12.4 62 180 0.3 0.6 1003.4 0.0000 0.0000
17:40 19.6 12.4 63 185 0.3 0.6 1003.5 0.1010 0.1000
17:50 19.5 12.3 63 180 0.3 0.6 1003.7 0.1010 0.1000
18:00 18.9 11.9 64 233 0.3 0.6 1004 0.1010 0.1000
18:11 18.8 11.9 64 270 0.3 0.8 1004.2 0.1010 0.1000
18:21 18.1 11.4 65 270 0.3 0.6 1004.2 0.1010 0.1000
18:30 17.9 11.7 67 270 0.3 0.6 1004.3 0.1010 0.2000
18:41 18.3 11.8 66 225 0.3 0.6 1004.4 0.2020 0.3000
18:57 18.6 11.9 65 191 0.3 0.6 1004.5 0.3030 0.4000
19:07 17.8 11.6 67 216 0.3 0.6 1004.6 0.3030 0.4000
19:16 16.9 11.2 69 270 0.3 0.8 1004.7 0.4040 0.5000
19:27 16.4 10.9 70 270 0.3 0.8 1004.6 0.3030 0.6000
19:37 15.9 10.9 72 270 0.3 0.8 1004.7 0.3030 0.6000
19:47 15.9 11.1 73 206 0.3 0.8 1004.9 0.2020 0.6000
20:12 16.6 11.1 70 216 0.3 0.6 1005 0.2020 0.7000
20:22 16.3 11 71 206 0.3 0.6 1005 0.2020 0.8000
20:32 15.9 10.9 72 270 0.3 0.6 1005.2 0.3030 0.9000
20:43 16.6 11.3 71 180 0.3 1.4 1005.3 0.4040 1.0000
20:53 15.8 10.8 72 270 0.3 0.8 1005.4 0.5050 1.1000
21:02 15.3 10.5 73 270 0.3 1.1 1005.4 0.4040 1.1000
21:13 14.9 10.3 74 270 0.3 0.8 1005.5 0.4040 1.1000
21:23 15.2 10.4 73 225 0.3 0.8 1005.6 0.3030 1.1000
21:33 14.7 10.1 74 225 0.3 1.1 1005.7 0.2020 1.1000
21:43 14.4 10 75 270 0.3 0.8 1005.8 0.2020 1.2000
21:53 14.1 9.7 75 236 0.3 0.8 1005.8 0.1010 1.2000
22:03 13.9 9.7 76 270 0.6 2.2 1005.9 0.1010 1.2000
22:13 13.7 9.7 77 225 0.3 0.8 1006 0.1010 1.2000
22:24 14.1 9.9 76 270 0.3 0.8 1006.1 0.2020 1.3000
22:34 13.7 9.7 77 270 0.3 0.8 1006.1 0.2020 1.3000
22:44 13.7 9.7 77 236 0.3 0.8 1006.2 0.2020 1.4000
22:54 13.6 9.6 77 270 0.3 0.8 1006.2 0.3030 1.5000
23:05 13.5 9.7 78 270 0.3 1.1 1006.3 0.3030 1.5000
23:15 13.6 10 79 270 0.3 0.8 1006.2 0.4040 1.6000
23:24 13.5 9.7 78 270 0.3 0.6 1006.3 0.3030 1.6000
23:34 13.4 9.6 78 234 0.3 0.8 1006.3 0.4040 1.7000
23:45 13.4 9.8 79 270 0.3 0.8 1006.3 0.3030 1.7000
23:55 13.4 9.8 79 270 0.3 0.8 1006.3 0.2020 1.7000

DAY STATISTIC

2021-05-11
TEMPERATURE
AVERAGE
17.1
HIGH
20.5
14:48
LOW
13.4
23:34
PRESSURE
AVERAGE
1003.6
HIGH
1006.3
23:05
LOW
1001.7
10:35
DEWPOINT
AVERAGE
11.0
HIGH
12.7
14:48
LOW
9.6
22:54
HUMIDITY
AVERAGE
68
HIGH
79
23:15
LOW
60
14:18
WIND SPEED
AVERAGE
0.2
HIGH
0.6
22:03
WIND GUST
AVERAGE
0.6
HIGH
2.2
22:03
WIND DIRECTION
PREVAILING
S
37.1%
N
0.0
NE
0.0
E
2.9
SE
10.0
S
37.1
SW
15.0
W
14.3
NW
0.0
PRECIPITATION
RAIN HOUR
0.5
RAIN DAY
1.7
TEMPERATURE (°C)
LOW
13.4
HIGH
20.5
AVERAGE
17.1
PRESSURE (hpa)
LOW
1001.7
HIGH
1006.3
AVERAGE
1003.6
DEVICE